createdAt,value
2018-09-15T00:01:24.654Z,12.70
2018-09-15T00:03:54.679Z,12.40
2018-09-15T00:06:24.704Z,12.30
2018-09-15T00:08:54.730Z,12.10
2018-09-15T00:11:24.784Z,11.90
2018-09-15T00:13:54.777Z,11.80
2018-09-15T00:16:24.590Z,11.60
2018-09-15T00:18:54.396Z,11.60
2018-09-15T00:21:24.249Z,11.70
2018-09-15T00:23:54.288Z,11.80
2018-09-15T00:26:24.241Z,11.80
2018-09-15T00:28:54.207Z,11.90
2018-09-15T00:31:24.234Z,12.00
2018-09-15T00:33:54.128Z,12.10
2018-09-15T00:36:24.231Z,11.60
2018-09-15T00:38:54.121Z,11.80
2018-09-15T00:41:23.979Z,11.90
2018-09-15T00:43:53.902Z,11.60
2018-09-15T00:46:23.999Z,11.30
2018-09-15T00:48:53.854Z,11.20
2018-09-15T00:51:23.740Z,11.20
2018-09-15T00:53:53.731Z,11.10
2018-09-15T00:56:23.620Z,11.20
2018-09-15T00:58:53.716Z,11.20
2018-09-15T01:01:23.756Z,11.10
2018-09-15T01:03:53.719Z,11.30
2018-09-15T01:06:23.814Z,11.50
2018-09-15T01:08:53.795Z,11.60
2018-09-15T01:11:24.709Z,11.30
2018-09-15T01:13:55.282Z,11.10
2018-09-15T01:16:25.051Z,11.10
2018-09-15T01:18:54.830Z,11.10
2018-09-15T01:21:24.855Z,11.40
2018-09-15T01:23:55.047Z,11.60
2018-09-15T01:26:25.052Z,11.80
2018-09-15T01:28:55.270Z,11.50
2018-09-15T01:31:25.283Z,11.20
2018-09-15T01:33:55.302Z,10.90
2018-09-15T01:36:25.299Z,10.80
2018-09-15T01:38:55.507Z,10.80
2018-09-15T01:41:25.429Z,10.80
2018-09-15T01:43:55.221Z,10.80
2018-09-15T01:46:25.240Z,10.90
2018-09-15T01:48:55.104Z,10.80
2018-09-15T01:51:25.159Z,11.00
2018-09-15T01:53:55.180Z,11.30
2018-09-15T01:56:25.330Z,11.70
2018-09-15T01:58:55.207Z,11.70
2018-09-15T02:01:25.207Z,11.50
2018-09-15T02:03:55.012Z,11.20
2018-09-15T02:06:24.831Z,11.00
2018-09-15T02:08:54.883Z,10.90
2018-09-15T02:11:24.949Z,11.40
2018-09-15T02:13:54.903Z,11.50
2018-09-15T02:16:24.923Z,11.30
2018-09-15T02:18:54.912Z,11.20
2018-09-15T02:21:24.926Z,10.90
2018-09-15T02:23:54.833Z,10.80
2018-09-15T02:26:24.718Z,10.80
2018-09-15T02:28:54.938Z,10.80
2018-09-15T02:31:24.899Z,10.80
2018-09-15T02:33:54.939Z,10.80
2018-09-15T02:36:24.899Z,10.80
2018-09-15T02:38:54.868Z,10.70
2018-09-15T02:41:24.863Z,10.50
2018-09-15T02:43:54.727Z,10.50
2018-09-15T02:46:24.750Z,10.60
2018-09-15T02:48:54.591Z,10.60
2018-09-15T02:51:24.508Z,10.80
2018-09-15T02:53:54.268Z,10.70
2018-09-15T02:56:24.088Z,10.60
2018-09-15T02:58:54.092Z,10.60
2018-09-15T03:01:24.077Z,10.60
2018-09-15T03:03:53.882Z,10.80
2018-09-15T03:06:23.911Z,11.40
2018-09-15T03:08:53.828Z,11.60
2018-09-15T03:11:23.847Z,11.50
2018-09-15T03:13:53.730Z,11.60
2018-09-15T03:16:23.734Z,11.60
2018-09-15T03:18:53.747Z,11.50
2018-09-15T03:21:23.806Z,11.50
2018-09-15T03:23:53.614Z,11.70
2018-09-15T03:26:23.661Z,11.70
2018-09-15T03:28:53.683Z,11.60
2018-09-15T03:31:23.551Z,11.50
2018-09-15T03:33:53.553Z,11.40
2018-09-15T03:36:23.603Z,11.60
2018-09-15T03:38:53.630Z,11.80
2018-09-15T03:41:23.656Z,11.80
2018-09-15T03:43:53.791Z,12.10
2018-09-15T03:46:23.709Z,12.10
2018-09-15T03:48:53.472Z,12.30
2018-09-15T03:51:23.468Z,12.40
2018-09-15T03:53:53.344Z,12.40
2018-09-15T03:56:23.329Z,12.30
2018-09-15T03:58:53.365Z,12.40
2018-09-15T04:01:23.336Z,12.60
2018-09-15T04:03:53.353Z,12.50
2018-09-15T04:06:23.498Z,12.50
2018-09-15T04:08:53.552Z,12.60
2018-09-15T04:11:23.641Z,12.60
2018-09-15T04:13:53.392Z,12.70
2018-09-15T04:16:23.470Z,12.60
2018-09-15T04:18:53.536Z,12.50
2018-09-15T04:21:23.617Z,12.20
2018-09-15T04:23:53.734Z,11.90
2018-09-15T04:26:23.809Z,12.10
2018-09-15T04:28:53.835Z,12.40
2018-09-15T04:31:23.917Z,12.50
2018-09-15T04:33:53.909Z,12.50
2018-09-15T04:36:23.926Z,12.50
2018-09-15T04:38:54.208Z,12.50
2018-09-15T04:41:24.250Z,12.30
2018-09-15T04:43:54.370Z,11.90
2018-09-15T04:46:24.453Z,11.80
2018-09-15T04:48:56.577Z,11.80
2018-09-15T04:51:26.440Z,11.80
2018-09-15T04:53:56.564Z,12.00
2018-09-15T04:56:26.351Z,12.20
2018-09-15T04:58:56.455Z,12.00
2018-09-15T05:01:26.344Z,12.00
2018-09-15T05:03:56.161Z,12.00
2018-09-15T05:06:26.287Z,12.10
2018-09-15T05:08:56.686Z,12.20
2018-09-15T05:11:26.706Z,12.20
2018-09-15T05:13:56.767Z,11.90
2018-09-15T05:16:26.653Z,11.90
2018-09-15T05:18:57.040Z,12.00
2018-09-15T05:21:26.980Z,12.10
2018-09-15T05:23:56.903Z,12.10
2018-09-15T05:26:27.110Z,12.00
2018-09-15T05:28:57.036Z,12.10
2018-09-15T05:31:27.162Z,12.10
2018-09-15T05:33:56.930Z,12.00
2018-09-15T05:36:26.764Z,12.30
2018-09-15T05:38:56.456Z,12.40
2018-09-15T05:41:26.878Z,12.40
2018-09-15T05:43:56.775Z,12.40
2018-09-15T05:46:26.639Z,12.40
2018-09-15T05:48:56.740Z,12.40
2018-09-15T05:51:26.502Z,12.40
2018-09-15T05:53:56.608Z,12.50
2018-09-15T05:56:26.315Z,12.40
2018-09-15T05:58:56.643Z,12.60
2018-09-15T06:01:26.595Z,12.50
2018-09-15T06:03:56.340Z,12.70
2018-09-15T06:06:26.438Z,12.70
2018-09-15T06:08:56.395Z,12.50
2018-09-15T06:11:26.418Z,12.70
2018-09-15T06:13:56.624Z,12.60
2018-09-15T06:16:26.658Z,12.80
2018-09-15T06:18:57.712Z,12.60
2018-09-15T06:21:27.682Z,12.70
2018-09-15T06:23:57.673Z,12.70
2018-09-15T06:26:27.523Z,12.60
2018-09-15T06:28:57.397Z,12.60
2018-09-15T06:31:27.508Z,12.80
2018-09-15T06:33:57.434Z,12.80
2018-09-15T06:36:27.343Z,12.70
2018-09-15T06:38:57.659Z,12.90
2018-09-15T06:41:27.491Z,12.90
2018-09-15T06:43:57.301Z,13.00
2018-09-15T06:46:27.444Z,13.00
2018-09-15T06:48:57.394Z,13.00
2018-09-15T06:51:27.357Z,13.10
2018-09-15T06:53:58.122Z,13.20
2018-09-15T06:56:28.163Z,13.30
2018-09-15T06:58:57.997Z,13.30
2018-09-15T07:01:27.878Z,13.30
2018-09-15T07:03:57.758Z,13.30
2018-09-15T07:06:27.683Z,13.40
2018-09-15T07:08:57.492Z,13.40
2018-09-15T07:11:27.774Z,13.50
2018-09-15T07:13:57.996Z,13.70
2018-09-15T07:16:28.227Z,13.70
2018-09-15T07:18:58.151Z,13.80
2018-09-15T07:21:28.079Z,13.90
2018-09-15T07:23:57.857Z,13.90
2018-09-15T07:26:27.846Z,14.00
2018-09-15T07:28:57.785Z,14.30
2018-09-15T07:31:27.830Z,14.30
2018-09-15T07:33:57.829Z,14.40
2018-09-15T07:36:27.613Z,14.50
2018-09-15T07:38:57.714Z,14.40
2018-09-15T07:41:27.600Z,14.40
2018-09-15T07:43:57.422Z,14.60
2018-09-15T07:46:27.474Z,14.40
2018-09-15T07:48:57.271Z,14.50
2018-09-15T07:51:27.101Z,14.80
2018-09-15T07:53:57.106Z,14.90
2018-09-15T07:56:27.115Z,14.80
2018-09-15T07:58:56.996Z,14.90
2018-09-15T08:01:26.993Z,15.00
2018-09-15T08:03:56.866Z,15.10
2018-09-15T08:06:26.887Z,15.30
2018-09-15T08:08:56.797Z,15.70
2018-09-15T08:11:26.755Z,15.50
2018-09-15T08:13:56.779Z,15.70
2018-09-15T08:16:26.596Z,16.00
2018-09-15T08:18:56.777Z,16.00
2018-09-15T08:21:26.912Z,16.20
2018-09-15T08:23:56.826Z,16.10
2018-09-15T08:26:26.681Z,16.20
2018-09-15T08:28:56.753Z,16.20
2018-09-15T08:31:26.667Z,16.30
2018-09-15T08:33:56.622Z,16.40
2018-09-15T08:36:26.679Z,16.30
2018-09-15T08:38:58.506Z,16.30
2018-09-15T08:41:28.328Z,16.50
2018-09-15T08:43:58.128Z,16.70
2018-09-15T08:46:28.045Z,16.70
2018-09-15T08:48:58.012Z,16.70
2018-09-15T08:51:27.975Z,16.80
2018-09-15T08:53:57.937Z,16.80
2018-09-15T08:56:27.947Z,16.90
2018-09-15T08:58:58.013Z,17.00
2018-09-15T09:01:27.994Z,16.90
2018-09-15T09:03:58.023Z,17.00
2018-09-15T09:06:27.955Z,16.90
2018-09-15T09:08:57.969Z,17.00
2018-09-15T09:11:27.863Z,16.80
2018-09-15T09:13:57.601Z,16.80
2018-09-15T09:16:27.315Z,16.80
2018-09-15T09:18:57.384Z,16.80
2018-09-15T09:21:27.407Z,16.70
2018-09-15T09:23:57.186Z,16.80
2018-09-15T09:26:27.221Z,16.80
2018-09-15T09:28:57.013Z,16.80
2018-09-15T09:31:27.104Z,16.80
2018-09-15T09:33:56.984Z,16.70
2018-09-15T09:36:26.820Z,16.90
2018-09-15T09:38:56.988Z,17.30
2018-09-15T09:41:27.019Z,17.40
2018-09-15T09:43:57.173Z,17.40
2018-09-15T09:46:27.178Z,17.60
2018-09-15T09:48:57.164Z,17.90
2018-09-15T09:51:27.175Z,18.00
2018-09-15T09:53:57.136Z,18.10
2018-09-15T09:56:27.282Z,17.90
2018-09-15T09:58:57.323Z,18.00
2018-09-15T10:01:29.232Z,18.10
2018-09-15T10:04:00.399Z,18.00
2018-09-15T10:06:30.244Z,17.80
2018-09-15T10:09:01.112Z,17.70
2018-09-15T10:11:31.205Z,17.80
2018-09-15T10:14:01.208Z,17.80
2018-09-15T10:16:31.340Z,17.90
2018-09-15T10:19:02.533Z,17.80
2018-09-15T10:21:32.499Z,17.80
2018-09-15T10:24:02.230Z,17.70
2018-09-15T10:26:32.227Z,17.80
2018-09-15T10:29:01.957Z,17.70
2018-09-15T10:31:32.525Z,17.90
2018-09-15T10:34:02.542Z,17.90
2018-09-15T10:36:32.439Z,17.60
2018-09-15T10:39:02.527Z,17.70
2018-09-15T10:41:32.355Z,17.80
2018-09-15T10:44:03.703Z,17.90
2018-09-15T10:46:33.716Z,18.10
2018-09-15T10:49:03.441Z,18.10
2018-09-15T10:51:33.276Z,18.50
2018-09-15T10:54:03.102Z,18.70
2018-09-15T10:56:33.208Z,18.90
2018-09-15T10:59:03.024Z,19.20
2018-09-15T11:01:32.959Z,19.00
2018-09-15T11:04:02.733Z,19.10
2018-09-15T11:06:32.747Z,19.00
2018-09-15T11:09:02.678Z,18.90
2018-09-15T11:11:32.654Z,18.80
2018-09-15T11:14:02.639Z,18.70
2018-09-15T11:16:32.491Z,18.60
2018-09-15T11:19:02.435Z,18.60
2018-09-15T11:21:32.477Z,18.40
2018-09-15T11:24:02.447Z,18.40
2018-09-15T11:26:32.398Z,18.40
2018-09-15T11:29:02.299Z,18.30
2018-09-15T11:31:32.035Z,18.30
2018-09-15T11:34:01.871Z,18.30
2018-09-15T11:36:31.891Z,18.60
2018-09-15T11:39:01.764Z,18.90
2018-09-15T11:41:31.560Z,19.00
2018-09-15T11:44:01.323Z,19.10
2018-09-15T11:46:31.066Z,19.20
2018-09-15T11:49:00.838Z,19.20
2018-09-15T11:51:30.611Z,19.40
2018-09-15T11:54:00.699Z,19.50
2018-09-15T11:56:30.582Z,19.70
2018-09-15T11:59:00.333Z,19.80
2018-09-15T12:01:30.083Z,19.90
2018-09-15T12:04:00.111Z,20.20
2018-09-15T12:06:30.148Z,20.20
2018-09-15T12:09:00.101Z,20.30
2018-09-15T12:11:29.844Z,20.40
2018-09-15T12:13:59.668Z,20.30
2018-09-15T12:16:29.756Z,20.50
2018-09-15T12:18:59.772Z,20.70
2018-09-15T12:21:29.584Z,20.70
2018-09-15T12:23:59.611Z,20.80
2018-09-15T12:26:29.583Z,20.60
2018-09-15T12:28:59.592Z,20.50
2018-09-15T12:31:29.384Z,20.40
2018-09-15T12:33:59.120Z,20.40
2018-09-15T12:36:28.831Z,20.30
2018-09-15T12:38:58.798Z,20.10
2018-09-15T12:41:28.889Z,20.10
2018-09-15T12:43:59.029Z,19.70
2018-09-15T12:46:29.018Z,19.70
2018-09-15T12:48:59.225Z,19.60
2018-09-15T12:51:29.048Z,19.60
2018-09-15T12:53:58.845Z,19.60
2018-09-15T12:56:28.943Z,19.60
2018-09-15T12:58:58.784Z,19.50
2018-09-15T13:01:28.535Z,19.30
2018-09-15T13:03:58.237Z,19.40
2018-09-15T13:06:28.060Z,19.50
2018-09-15T13:08:57.924Z,19.50
2018-09-15T13:11:27.719Z,19.60
2018-09-15T13:13:57.734Z,19.50
2018-09-15T13:16:28.157Z,19.40
2018-09-15T13:18:58.090Z,19.40
2018-09-15T13:21:28.123Z,19.50
2018-09-15T13:23:58.031Z,19.30
2018-09-15T13:26:28.458Z,19.30
2018-09-15T13:28:58.345Z,19.10
2018-09-15T13:31:28.295Z,18.90
2018-09-15T13:33:58.242Z,18.70
2018-09-15T13:36:28.315Z,18.60
2018-09-15T13:38:58.347Z,18.50
2018-09-15T13:41:28.320Z,18.60
2018-09-15T13:43:58.363Z,18.70
2018-09-15T13:46:28.360Z,18.60
2018-09-15T13:48:58.500Z,18.50
2018-09-15T13:51:28.799Z,18.50
2018-09-15T13:53:58.901Z,18.40
2018-09-15T13:56:29.518Z,18.50
2018-09-15T13:58:59.554Z,18.50
2018-09-15T14:01:29.584Z,18.50
2018-09-15T14:03:59.341Z,18.50
2018-09-15T14:06:29.192Z,18.40
2018-09-15T14:08:59.153Z,18.50
2018-09-15T14:11:28.969Z,18.50
2018-09-15T14:13:59.134Z,18.60
2018-09-15T14:16:29.210Z,18.70
2018-09-15T14:18:58.931Z,18.70
2018-09-15T14:21:28.755Z,18.60
2018-09-15T14:23:58.991Z,18.80
2018-09-15T14:26:28.893Z,18.80
2018-09-15T14:28:58.841Z,18.80
2018-09-15T14:31:28.768Z,18.70
2018-09-15T14:33:58.647Z,18.70
2018-09-15T14:36:28.589Z,18.80
2018-09-15T14:38:58.947Z,18.80
2018-09-15T14:41:28.926Z,18.80
2018-09-15T14:43:58.828Z,18.80
2018-09-15T14:46:28.658Z,18.80
2018-09-15T14:48:58.840Z,18.80
2018-09-15T14:51:30.260Z,18.80
2018-09-15T14:54:00.176Z,18.90
2018-09-15T14:56:30.263Z,18.80
2018-09-15T14:59:00.239Z,18.80
2018-09-15T15:01:30.290Z,18.80
2018-09-15T15:04:00.263Z,18.80
2018-09-15T15:06:29.992Z,18.70
2018-09-15T15:08:59.805Z,18.60
2018-09-15T15:11:29.620Z,18.70
2018-09-15T15:13:59.331Z,18.70
2018-09-15T15:16:29.291Z,18.50
2018-09-15T15:18:59.211Z,18.60
2018-09-15T15:21:29.683Z,18.60
2018-09-15T15:23:59.643Z,18.60
2018-09-15T15:26:30.149Z,18.70
2018-09-15T15:28:59.806Z,18.80
2018-09-15T15:31:30.412Z,18.80
2018-09-15T15:34:00.271Z,18.90
2018-09-15T15:36:30.047Z,18.90
2018-09-15T15:39:00.108Z,18.90
2018-09-15T15:41:30.074Z,19.00
2018-09-15T15:44:00.113Z,19.00
2018-09-15T15:46:30.012Z,19.00
2018-09-15T15:48:59.739Z,18.90
2018-09-15T15:51:29.521Z,18.90
2018-09-15T15:53:59.490Z,18.90
2018-09-15T15:56:29.468Z,18.90
2018-09-15T15:59:00.314Z,19.00
2018-09-15T16:01:30.010Z,19.00
2018-09-15T16:03:59.898Z,19.00
2018-09-15T16:06:29.782Z,18.90
2018-09-15T16:09:00.643Z,18.90
2018-09-15T16:11:30.544Z,18.90
2018-09-15T16:14:00.303Z,18.90
2018-09-15T16:16:30.259Z,18.90
2018-09-15T16:19:00.070Z,18.80
2018-09-15T16:21:29.942Z,18.80
2018-09-15T16:23:59.715Z,18.80
2018-09-15T16:26:29.968Z,18.90
2018-09-15T16:28:59.739Z,18.80
2018-09-15T16:31:29.690Z,18.70
2018-09-15T16:33:59.484Z,18.70
2018-09-15T16:36:29.528Z,18.70
2018-09-15T16:38:59.279Z,18.70
2018-09-15T16:41:28.987Z,18.80
2018-09-15T16:43:58.874Z,18.70
2018-09-15T16:46:28.707Z,18.70
2018-09-15T16:48:58.452Z,18.70
2018-09-15T16:51:28.339Z,18.70
2018-09-15T16:53:58.239Z,18.70
2018-09-15T16:56:28.122Z,18.50
2018-09-15T16:58:58.000Z,18.50
2018-09-15T17:01:27.871Z,18.50
2018-09-15T17:03:57.704Z,18.50
2018-09-15T17:06:27.706Z,18.50
2018-09-15T17:08:57.571Z,18.40
2018-09-15T17:11:27.514Z,18.40
2018-09-15T17:13:57.402Z,18.40
2018-09-15T17:16:27.340Z,18.40
2018-09-15T17:18:58.008Z,18.30
2018-09-15T17:21:28.286Z,18.30
2018-09-15T17:23:58.313Z,18.30
2018-09-15T17:26:28.307Z,18.00
2018-09-15T17:29:00.055Z,17.50
2018-09-15T17:31:30.024Z,17.40
2018-09-15T17:33:59.999Z,17.10
2018-09-15T17:36:29.973Z,16.90
2018-09-15T17:38:59.878Z,16.80
2018-09-15T17:41:29.935Z,16.60
2018-09-15T17:43:59.888Z,16.50
2018-09-15T17:46:29.849Z,16.60
2018-09-15T17:48:59.856Z,16.80
2018-09-15T17:51:29.748Z,16.80
2018-09-15T17:54:00.064Z,16.90
2018-09-15T17:56:30.098Z,17.00
2018-09-15T17:58:59.821Z,17.00
2018-09-15T18:01:29.963Z,17.00
2018-09-15T18:03:59.800Z,16.90
2018-09-15T18:06:31.841Z,16.60
2018-09-15T18:09:01.645Z,16.60
2018-09-15T18:11:31.477Z,16.40
2018-09-15T18:14:01.343Z,16.30
2018-09-15T18:16:31.300Z,16.50
2018-09-15T18:19:01.280Z,16.20
2018-09-15T18:21:31.063Z,16.20
2018-09-15T18:24:00.960Z,16.30
2018-09-15T18:26:30.747Z,16.30
2018-09-15T18:29:00.497Z,15.90
2018-09-15T18:31:30.755Z,15.60
2018-09-15T18:34:00.887Z,15.40
2018-09-15T18:36:31.003Z,15.20
2018-09-15T18:39:01.259Z,15.20
2018-09-15T18:41:35.018Z,15.40
2018-09-15T18:44:05.125Z,15.70
2018-09-15T18:46:35.342Z,15.80
2018-09-15T18:49:05.943Z,15.80
2018-09-15T18:51:35.939Z,15.60
2018-09-15T18:54:05.884Z,15.60
2018-09-15T18:56:36.095Z,15.60
2018-09-15T18:59:06.382Z,15.60
2018-09-15T19:01:36.505Z,15.50
2018-09-15T19:04:06.864Z,15.60
2018-09-15T19:06:36.948Z,15.50
2018-09-15T19:09:11.399Z,15.20
2018-09-15T19:11:41.741Z,15.00
2018-09-15T19:14:11.822Z,14.80
2018-09-15T19:16:42.119Z,15.00
2018-09-15T19:19:12.100Z,14.80
2018-09-15T19:21:42.284Z,14.60
2018-09-15T19:24:14.281Z,14.60
2018-09-15T19:26:44.450Z,14.60
2018-09-15T19:29:14.363Z,14.80
2018-09-15T19:31:44.339Z,14.60
2018-09-15T19:34:14.311Z,14.80
2018-09-15T19:36:44.260Z,14.80
2018-09-15T19:39:15.291Z,14.80
2018-09-15T19:41:45.233Z,14.70
2018-09-15T19:44:15.242Z,14.50
2018-09-15T19:46:45.351Z,14.30
2018-09-15T19:49:15.391Z,14.10
2018-09-15T19:51:45.339Z,14.20
2018-09-15T19:54:15.396Z,14.00
2018-09-15T19:56:45.360Z,13.90
2018-09-15T19:59:15.396Z,14.00
2018-09-15T20:01:45.491Z,14.10
2018-09-15T20:04:15.513Z,14.00
2018-09-15T20:06:45.698Z,13.90
2018-09-15T20:09:15.680Z,14.10
2018-09-15T20:11:45.787Z,14.20
2018-09-15T20:14:15.866Z,13.90
2018-09-15T20:16:43.890Z,13.70
2018-09-15T20:19:11.932Z,13.70
2018-09-15T20:21:39.906Z,13.80
2018-09-15T20:24:09.957Z,13.90
2018-09-15T20:26:40.005Z,14.10
2018-09-15T20:29:10.108Z,14.20
2018-09-15T20:31:40.340Z,14.20
2018-09-15T20:34:10.303Z,14.20
2018-09-15T20:36:40.377Z,14.10
2018-09-15T20:39:15.328Z,14.00
2018-09-15T20:41:45.428Z,13.60
2018-09-15T20:44:15.496Z,13.70
2018-09-15T20:46:45.629Z,13.80
2018-09-15T20:49:15.672Z,14.00
2018-09-15T20:51:45.661Z,14.00
2018-09-15T20:54:15.795Z,14.00
2018-09-15T20:56:45.895Z,13.80
2018-09-15T20:59:15.984Z,13.50
2018-09-15T21:01:46.144Z,13.40
2018-09-15T21:04:16.321Z,13.40
2018-09-15T21:06:46.369Z,13.40
2018-09-15T21:09:16.329Z,13.40
2018-09-15T21:11:46.408Z,13.70
2018-09-15T21:14:16.591Z,13.80
2018-09-15T21:16:46.622Z,13.90
2018-09-15T21:19:16.755Z,13.90
2018-09-15T21:21:46.841Z,13.80
2018-09-15T21:24:16.908Z,13.60
2018-09-15T21:26:46.995Z,13.30
2018-09-15T21:29:17.036Z,13.00
2018-09-15T21:31:47.034Z,13.00
2018-09-15T21:34:17.413Z,12.90
2018-09-15T21:36:47.432Z,12.80
2018-09-15T21:39:17.580Z,12.60
2018-09-15T21:41:47.600Z,12.60
2018-09-15T21:44:17.959Z,12.60
2018-09-15T21:46:48.145Z,12.90
2018-09-15T21:49:18.194Z,13.00
2018-09-15T21:51:48.305Z,13.00
2018-09-15T21:54:18.379Z,13.10
2018-09-15T21:56:49.475Z,13.10
2018-09-15T21:59:19.591Z,12.90
2018-09-15T22:01:49.715Z,13.00
2018-09-15T22:04:20.928Z,13.00
2018-09-15T22:06:53.031Z,12.70
2018-09-15T22:09:23.098Z,12.50
2018-09-15T22:11:53.150Z,12.30
2018-09-15T22:14:23.243Z,12.30
2018-09-15T22:16:53.318Z,12.40
2018-09-15T22:19:23.420Z,12.30
2018-09-15T22:21:53.456Z,12.30
2018-09-15T22:24:23.487Z,12.40
2018-09-15T22:26:53.585Z,12.70
2018-09-15T22:29:23.697Z,12.60
2018-09-15T22:31:53.695Z,12.20
2018-09-15T22:34:23.872Z,12.10
2018-09-15T22:36:53.993Z,12.20
2018-09-15T22:39:24.045Z,12.20
2018-09-15T22:41:54.144Z,12.10
2018-09-15T22:44:24.273Z,11.80
2018-09-15T22:46:54.370Z,11.80
2018-09-15T22:49:24.545Z,11.80
2018-09-15T22:51:54.689Z,11.70
2018-09-15T22:54:24.781Z,12.00
2018-09-15T22:56:54.947Z,12.10
2018-09-15T22:59:25.109Z,12.10
2018-09-15T23:01:55.161Z,11.80
2018-09-15T23:04:25.237Z,11.70
2018-09-15T23:06:55.250Z,11.70
2018-09-15T23:09:25.296Z,12.00
2018-09-15T23:11:55.387Z,12.40
2018-09-15T23:14:25.490Z,12.40
2018-09-15T23:16:55.493Z,11.90
2018-09-15T23:19:25.675Z,11.50
2018-09-15T23:21:56.178Z,11.30
2018-09-15T23:24:26.277Z,11.40
2018-09-15T23:26:56.389Z,11.50
2018-09-15T23:29:26.427Z,11.50
2018-09-15T23:31:56.534Z,11.60
2018-09-15T23:34:26.629Z,11.70
2018-09-15T23:36:56.709Z,11.80
2018-09-15T23:39:26.803Z,11.80
2018-09-15T23:41:56.868Z,11.70
2018-09-15T23:44:27.003Z,11.40
2018-09-15T23:46:57.114Z,11.20
2018-09-15T23:49:27.336Z,11.10
2018-09-15T23:51:57.959Z,11.10
2018-09-15T23:54:28.351Z,11.30
2018-09-15T23:56:58.624Z,11.70
2018-09-15T23:59:28.647Z,11.80
